sensor_id;sensor_type;location;lat;lon;timestamp;P1;durP1;ratioP1;P2;durP2;ratioP2
37781;SDS011;23621;50.878;4.584;2022-10-30T00:00:55;6.60;;;4.18;;
37781;SDS011;23621;50.878;4.584;2022-10-30T00:03:22;8.93;;;4.40;;
37781;SDS011;23621;50.878;4.584;2022-10-30T00:05:49;6.03;;;4.25;;
37781;SDS011;23621;50.878;4.584;2022-10-30T00:08:18;5.55;;;4.00;;
37781;SDS011;23621;50.878;4.584;2022-10-30T00:10:46;5.75;;;3.80;;
37781;SDS011;23621;50.878;4.584;2022-10-30T00:13:15;5.50;;;3.97;;
37781;SDS011;23621;50.878;4.584;2022-10-30T00:15:50;9.13;;;4.55;;
37781;SDS011;23621;50.878;4.584;2022-10-30T00:18:18;7.85;;;4.72;;
37781;SDS011;23621;50.878;4.584;2022-10-30T00:20:46;8.00;;;4.22;;
37781;SDS011;23621;50.878;4.584;2022-10-30T00:23:16;9.07;;;4.03;;
37781;SDS011;23621;50.878;4.584;2022-10-30T00:25:43;6.72;;;4.35;;
37781;SDS011;23621;50.878;4.584;2022-10-30T00:28:09;5.70;;;3.80;;
37781;SDS011;23621;50.878;4.584;2022-10-30T00:30:36;5.57;;;3.90;;
37781;SDS011;23621;50.878;4.584;2022-10-30T00:33:06;8.15;;;4.60;;
37781;SDS011;23621;50.878;4.584;2022-10-30T00:35:33;6.13;;;4.40;;
37781;SDS011;23621;50.878;4.584;2022-10-30T00:38:02;6.53;;;4.25;;
37781;SDS011;23621;50.878;4.584;2022-10-30T00:40:29;7.07;;;4.15;;
37781;SDS011;23621;50.878;4.584;2022-10-30T00:42:56;8.43;;;3.97;;
37781;SDS011;23621;50.878;4.584;2022-10-30T00:45:23;9.38;;;4.40;;
37781;SDS011;23621;50.878;4.584;2022-10-30T00:47:57;6.28;;;4.13;;
37781;SDS011;23621;50.878;4.584;2022-10-30T00:50:29;8.38;;;4.40;;
37781;SDS011;23621;50.878;4.584;2022-10-30T00:53:09;6.50;;;4.20;;
37781;SDS011;23621;50.878;4.584;2022-10-30T00:55:43;7.55;;;4.60;;
37781;SDS011;23621;50.878;4.584;2022-10-30T00:58:18;7.78;;;4.20;;
37781;SDS011;23621;50.878;4.584;2022-10-30T01:00:50;5.70;;;4.10;;
37781;SDS011;23621;50.878;4.584;2022-10-30T01:03:20;8.18;;;4.22;;
37781;SDS011;23621;50.878;4.584;2022-10-30T01:05:50;5.70;;;4.28;;
37781;SDS011;23621;50.878;4.584;2022-10-30T01:08:20;7.30;;;4.75;;
37781;SDS011;23621;50.878;4.584;2022-10-30T01:10:47;6.22;;;4.30;;
37781;SDS011;23621;50.878;4.584;2022-10-30T01:13:14;10.65;;;4.93;;
37781;SDS011;23621;50.878;4.584;2022-10-30T01:15:48;6.28;;;4.68;;
37781;SDS011;23621;50.878;4.584;2022-10-30T01:18:20;8.70;;;4.28;;
37781;SDS011;23621;50.878;4.584;2022-10-30T01:21:08;6.28;;;4.55;;
37781;SDS011;23621;50.878;4.584;2022-10-30T01:26:57;6.22;;;4.43;;
37781;SDS011;23621;50.878;4.584;2022-10-30T01:30:02;7.70;;;4.78;;
37781;SDS011;23621;50.878;4.584;2022-10-30T01:35:30;7.20;;;4.45;;
37781;SDS011;23621;50.878;4.584;2022-10-30T01:38:22;8.73;;;5.07;;
37781;SDS011;23621;50.878;4.584;2022-10-30T01:41:09;8.05;;;4.80;;
37781;SDS011;23621;50.878;4.584;2022-10-30T01:43:36;8.05;;;4.38;;
37781;SDS011;23621;50.878;4.584;2022-10-30T01:46:17;5.75;;;4.53;;
37781;SDS011;23621;50.878;4.584;2022-10-30T01:54:51;8.45;;;4.15;;
37781;SDS011;23621;50.878;4.584;2022-10-30T01:57:38;6.85;;;4.20;;
37781;SDS011;23621;50.878;4.584;2022-10-30T02:00:14;9.52;;;3.97;;
37781;SDS011;23621;50.878;4.584;2022-10-30T02:02:41;4.53;;;3.90;;
37781;SDS011;23621;50.878;4.584;2022-10-30T02:05:10;7.75;;;4.25;;
37781;SDS011;23621;50.878;4.584;2022-10-30T02:07:47;8.95;;;4.40;;
37781;SDS011;23621;50.878;4.584;2022-10-30T02:10:13;10.13;;;5.07;;
37781;SDS011;23621;50.878;4.584;2022-10-30T02:12:40;10.10;;;4.97;;
37781;SDS011;23621;50.878;4.584;2022-10-30T02:15:07;7.65;;;4.50;;
37781;SDS011;23621;50.878;4.584;2022-10-30T02:17:35;7.78;;;4.80;;
37781;SDS011;23621;50.878;4.584;2022-10-30T02:20:02;7.40;;;4.57;;
37781;SDS011;23621;50.878;4.584;2022-10-30T02:22:30;5.60;;;4.45;;
37781;SDS011;23621;50.878;4.584;2022-10-30T02:24:56;7.55;;;4.90;;
37781;SDS011;23621;50.878;4.584;2022-10-30T02:27:23;7.43;;;4.80;;
37781;SDS011;23621;50.878;4.584;2022-10-30T02:29:50;9.23;;;4.90;;
37781;SDS011;23621;50.878;4.584;2022-10-30T02:32:17;6.93;;;5.32;;
37781;SDS011;23621;50.878;4.584;2022-10-30T02:34:43;6.57;;;4.63;;
37781;SDS011;23621;50.878;4.584;2022-10-30T02:37:10;10.02;;;5.20;;
37781;SDS011;23621;50.878;4.584;2022-10-30T02:39:39;7.20;;;4.97;;
37781;SDS011;23621;50.878;4.584;2022-10-30T02:42:06;10.63;;;6.03;;
37781;SDS011;23621;50.878;4.584;2022-10-30T02:44:33;10.57;;;5.88;;
37781;SDS011;23621;50.878;4.584;2022-10-30T02:47:00;7.88;;;5.43;;
37781;SDS011;23621;50.878;4.584;2022-10-30T02:49:27;8.82;;;5.38;;
37781;SDS011;23621;50.878;4.584;2022-10-30T02:51:53;6.72;;;4.97;;
37781;SDS011;23621;50.878;4.584;2022-10-30T02:54:20;7.63;;;4.47;;
37781;SDS011;23621;50.878;4.584;2022-10-30T02:56:47;8.48;;;4.97;;
37781;SDS011;23621;50.878;4.584;2022-10-30T02:59:14;7.90;;;5.68;;
37781;SDS011;23621;50.878;4.584;2022-10-30T03:01:41;14.48;;;6.63;;
37781;SDS011;23621;50.878;4.584;2022-10-30T03:04:08;20.33;;;8.95;;
37781;SDS011;23621;50.878;4.584;2022-10-30T03:06:35;20.55;;;9.30;;
37781;SDS011;23621;50.878;4.584;2022-10-30T03:09:01;16.83;;;7.40;;
37781;SDS011;23621;50.878;4.584;2022-10-30T03:11:28;13.00;;;5.82;;
37781;SDS011;23621;50.878;4.584;2022-10-30T03:13:55;10.55;;;6.45;;
37781;SDS011;23621;50.878;4.584;2022-10-30T03:16:23;18.08;;;8.05;;
37781;SDS011;23621;50.878;4.584;2022-10-30T03:18:51;18.05;;;7.70;;
37781;SDS011;23621;50.878;4.584;2022-10-30T03:21:19;22.17;;;9.38;;
37781;SDS011;23621;50.878;4.584;2022-10-30T03:23:47;19.20;;;8.65;;
37781;SDS011;23621;50.878;4.584;2022-10-30T03:26:16;14.23;;;6.68;;
37781;SDS011;23621;50.878;4.584;2022-10-30T03:28:43;8.98;;;5.70;;
37781;SDS011;23621;50.878;4.584;2022-10-30T03:31:11;6.15;;;4.60;;
37781;SDS011;23621;50.878;4.584;2022-10-30T03:33:40;11.52;;;5.50;;
37781;SDS011;23621;50.878;4.584;2022-10-30T03:36:07;7.30;;;5.38;;
37781;SDS011;23621;50.878;4.584;2022-10-30T03:38:35;12.43;;;6.40;;
37781;SDS011;23621;50.878;4.584;2022-10-30T03:41:03;7.55;;;5.15;;
37781;SDS011;23621;50.878;4.584;2022-10-30T03:43:31;8.90;;;5.13;;
37781;SDS011;23621;50.878;4.584;2022-10-30T03:45:58;7.20;;;5.00;;
37781;SDS011;23621;50.878;4.584;2022-10-30T03:48:25;9.30;;;4.93;;
37781;SDS011;23621;50.878;4.584;2022-10-30T03:50:56;6.95;;;4.35;;
37781;SDS011;23621;50.878;4.584;2022-10-30T03:53:25;7.85;;;4.80;;
37781;SDS011;23621;50.878;4.584;2022-10-30T03:55:58;7.95;;;4.43;;
37781;SDS011;23621;50.878;4.584;2022-10-30T03:58:26;9.25;;;5.05;;
37781;SDS011;23621;50.878;4.584;2022-10-30T04:00:54;8.52;;;5.00;;
37781;SDS011;23621;50.878;4.584;2022-10-30T04:03:26;7.35;;;5.43;;
37781;SDS011;23621;50.878;4.584;2022-10-30T04:05:53;8.30;;;5.57;;
37781;SDS011;23621;50.878;4.584;2022-10-30T04:08:20;8.82;;;6.03;;
37781;SDS011;23621;50.878;4.584;2022-10-30T04:10:47;11.00;;;6.18;;
37781;SDS011;23621;50.878;4.584;2022-10-30T04:13:15;10.70;;;6.20;;
37781;SDS011;23621;50.878;4.584;2022-10-30T04:15:43;9.90;;;5.88;;
37781;SDS011;23621;50.878;4.584;2022-10-30T04:18:10;7.13;;;4.68;;
37781;SDS011;23621;50.878;4.584;2022-10-30T04:20:38;7.55;;;4.88;;
37781;SDS011;23621;50.878;4.584;2022-10-30T04:23:06;9.07;;;4.78;;
37781;SDS011;23621;50.878;4.584;2022-10-30T04:25:35;9.95;;;4.65;;
37781;SDS011;23621;50.878;4.584;2022-10-30T04:28:02;8.75;;;4.93;;
37781;SDS011;23621;50.878;4.584;2022-10-30T04:30:30;7.50;;;5.20;;
37781;SDS011;23621;50.878;4.584;2022-10-30T04:33:03;5.75;;;4.57;;
37781;SDS011;23621;50.878;4.584;2022-10-30T04:35:33;7.28;;;4.72;;
37781;SDS011;23621;50.878;4.584;2022-10-30T04:38:03;8.85;;;4.82;;
37781;SDS011;23621;50.878;4.584;2022-10-30T04:40:35;7.97;;;5.10;;
37781;SDS011;23621;50.878;4.584;2022-10-30T04:43:03;8.55;;;4.82;;
37781;SDS011;23621;50.878;4.584;2022-10-30T04:45:31;8.25;;;5.22;;
37781;SDS011;23621;50.878;4.584;2022-10-30T04:48:02;6.35;;;5.05;;
37781;SDS011;23621;50.878;4.584;2022-10-30T04:50:29;9.98;;;5.43;;
37781;SDS011;23621;50.878;4.584;2022-10-30T04:53:04;8.63;;;4.90;;
37781;SDS011;23621;50.878;4.584;2022-10-30T04:55:44;8.18;;;4.90;;
37781;SDS011;23621;50.878;4.584;2022-10-30T04:58:12;10.15;;;5.15;;
37781;SDS011;23621;50.878;4.584;2022-10-30T05:00:39;11.88;;;5.00;;
37781;SDS011;23621;50.878;4.584;2022-10-30T05:03:06;7.43;;;5.57;;
37781;SDS011;23621;50.878;4.584;2022-10-30T05:05:34;7.20;;;5.30;;
37781;SDS011;23621;50.878;4.584;2022-10-30T05:08:01;11.43;;;6.32;;
37781;SDS011;23621;50.878;4.584;2022-10-30T05:10:28;6.38;;;4.70;;
37781;SDS011;23621;50.878;4.584;2022-10-30T05:12:55;8.52;;;5.00;;
37781;SDS011;23621;50.878;4.584;2022-10-30T05:15:22;9.23;;;5.43;;
37781;SDS011;23621;50.878;4.584;2022-10-30T05:17:52;9.55;;;5.93;;
37781;SDS011;23621;50.878;4.584;2022-10-30T05:20:19;8.18;;;5.63;;
37781;SDS011;23621;50.878;4.584;2022-10-30T05:22:52;9.32;;;5.60;;
37781;SDS011;23621;50.878;4.584;2022-10-30T05:25:23;9.65;;;5.28;;
37781;SDS011;23621;50.878;4.584;2022-10-30T05:27:56;10.77;;;5.43;;
37781;SDS011;23621;50.878;4.584;2022-10-30T05:30:27;12.75;;;6.13;;
37781;SDS011;23621;50.878;4.584;2022-10-30T05:33:03;8.57;;;5.80;;
37781;SDS011;23621;50.878;4.584;2022-10-30T05:35:32;7.57;;;5.65;;
37781;SDS011;23621;50.878;4.584;2022-10-30T05:38:00;9.88;;;5.32;;
37781;SDS011;23621;50.878;4.584;2022-10-30T05:40:28;6.93;;;5.20;;
37781;SDS011;23621;50.878;4.584;2022-10-30T05:42:55;4.70;;;4.25;;
37781;SDS011;23621;50.878;4.584;2022-10-30T05:45:22;7.90;;;4.88;;
37781;SDS011;23621;50.878;4.584;2022-10-30T05:47:56;10.82;;;5.35;;
37781;SDS011;23621;50.878;4.584;2022-10-30T05:50:25;11.15;;;5.95;;
37781;SDS011;23621;50.878;4.584;2022-10-30T05:52:57;8.60;;;5.47;;
37781;SDS011;23621;50.878;4.584;2022-10-30T05:55:28;11.45;;;5.57;;
37781;SDS011;23621;50.878;4.584;2022-10-30T05:57:56;9.55;;;5.68;;
37781;SDS011;23621;50.878;4.584;2022-10-30T06:00:25;8.18;;;5.32;;
37781;SDS011;23621;50.878;4.584;2022-10-30T06:02:57;10.35;;;5.90;;
37781;SDS011;23621;50.878;4.584;2022-10-30T06:05:29;7.68;;;5.13;;
37781;SDS011;23621;50.878;4.584;2022-10-30T06:07:57;6.88;;;5.32;;
37781;SDS011;23621;50.878;4.584;2022-10-30T06:10:25;8.70;;;5.55;;
37781;SDS011;23621;50.878;4.584;2022-10-30T06:12:59;7.85;;;5.38;;
37781;SDS011;23621;50.878;4.584;2022-10-30T06:15:28;11.18;;;5.70;;
37781;SDS011;23621;50.878;4.584;2022-10-30T06:17:56;10.73;;;5.78;;
37781;SDS011;23621;50.878;4.584;2022-10-30T06:20:25;9.13;;;5.30;;
37781;SDS011;23621;50.878;4.584;2022-10-30T06:22:57;8.32;;;5.75;;
37781;SDS011;23621;50.878;4.584;2022-10-30T06:25:26;9.70;;;5.72;;
37781;SDS011;23621;50.878;4.584;2022-10-30T06:27:54;8.85;;;5.50;;
37781;SDS011;23621;50.878;4.584;2022-10-30T06:30:22;9.40;;;6.88;;
37781;SDS011;23621;50.878;4.584;2022-10-30T06:32:49;12.07;;;8.50;;
37781;SDS011;23621;50.878;4.584;2022-10-30T06:35:26;10.10;;;7.60;;
37781;SDS011;23621;50.878;4.584;2022-10-30T06:37:53;8.20;;;6.53;;
37781;SDS011;23621;50.878;4.584;2022-10-30T06:40:21;7.93;;;5.53;;
37781;SDS011;23621;50.878;4.584;2022-10-30T06:42:49;7.93;;;5.80;;
37781;SDS011;23621;50.878;4.584;2022-10-30T06:45:17;11.13;;;5.93;;
37781;SDS011;23621;50.878;4.584;2022-10-30T06:47:45;10.02;;;5.00;;
37781;SDS011;23621;50.878;4.584;2022-10-30T06:50:14;10.35;;;5.97;;
37781;SDS011;23621;50.878;4.584;2022-10-30T06:52:44;10.93;;;5.78;;
37781;SDS011;23621;50.878;4.584;2022-10-30T06:55:11;12.88;;;6.57;;
37781;SDS011;23621;50.878;4.584;2022-10-30T06:57:38;7.05;;;5.40;;
37781;SDS011;23621;50.878;4.584;2022-10-30T07:00:05;10.30;;;5.85;;
37781;SDS011;23621;50.878;4.584;2022-10-30T07:02:33;7.65;;;5.63;;
37781;SDS011;23621;50.878;4.584;2022-10-30T07:05:00;10.48;;;5.32;;
37781;SDS011;23621;50.878;4.584;2022-10-30T07:07:26;11.23;;;5.47;;
37781;SDS011;23621;50.878;4.584;2022-10-30T07:09:54;8.77;;;5.22;;
37781;SDS011;23621;50.878;4.584;2022-10-30T07:12:21;12.82;;;5.15;;
37781;SDS011;23621;50.878;4.584;2022-10-30T07:14:48;7.53;;;5.20;;
37781;SDS011;23621;50.878;4.584;2022-10-30T07:17:15;8.85;;;5.25;;
37781;SDS011;23621;50.878;4.584;2022-10-30T07:19:42;11.10;;;6.53;;
37781;SDS011;23621;50.878;4.584;2022-10-30T07:22:08;7.35;;;5.15;;
37781;SDS011;23621;50.878;4.584;2022-10-30T07:24:35;7.13;;;5.45;;
37781;SDS011;23621;50.878;4.584;2022-10-30T07:27:02;8.20;;;5.43;;
37781;SDS011;23621;50.878;4.584;2022-10-30T07:29:29;8.20;;;5.47;;
37781;SDS011;23621;50.878;4.584;2022-10-30T07:31:56;7.63;;;5.13;;
37781;SDS011;23621;50.878;4.584;2022-10-30T07:34:28;8.68;;;5.03;;
37781;SDS011;23621;50.878;4.584;2022-10-30T07:36:55;10.98;;;5.72;;
37781;SDS011;23621;50.878;4.584;2022-10-30T07:39:22;9.35;;;5.80;;
37781;SDS011;23621;50.878;4.584;2022-10-30T07:41:49;7.95;;;5.60;;
37781;SDS011;23621;50.878;4.584;2022-10-30T07:44:16;6.50;;;5.20;;
37781;SDS011;23621;50.878;4.584;2022-10-30T07:46:43;7.97;;;5.28;;
37781;SDS011;23621;50.878;4.584;2022-10-30T07:49:10;9.38;;;5.38;;
37781;SDS011;23621;50.878;4.584;2022-10-30T07:51:36;9.85;;;6.40;;
37781;SDS011;23621;50.878;4.584;2022-10-30T07:54:03;9.63;;;6.35;;
37781;SDS011;23621;50.878;4.584;2022-10-30T07:56:30;11.25;;;6.32;;
37781;SDS011;23621;50.878;4.584;2022-10-30T07:58:57;7.35;;;5.72;;
37781;SDS011;23621;50.878;4.584;2022-10-30T08:01:24;11.45;;;5.35;;
37781;SDS011;23621;50.878;4.584;2022-10-30T08:03:51;9.77;;;5.55;;
37781;SDS011;23621;50.878;4.584;2022-10-30T08:06:17;12.32;;;6.03;;
37781;SDS011;23621;50.878;4.584;2022-10-30T08:08:51;8.20;;;5.30;;
37781;SDS011;23621;50.878;4.584;2022-10-30T08:11:18;8.10;;;5.82;;
37781;SDS011;23621;50.878;4.584;2022-10-30T08:13:45;7.20;;;5.32;;
37781;SDS011;23621;50.878;4.584;2022-10-30T08:16:11;12.68;;;6.10;;
37781;SDS011;23621;50.878;4.584;2022-10-30T08:18:38;6.80;;;4.97;;
37781;SDS011;23621;50.878;4.584;2022-10-30T08:21:08;11.85;;;5.75;;
37781;SDS011;23621;50.878;4.584;2022-10-30T08:23:35;7.07;;;5.10;;
37781;SDS011;23621;50.878;4.584;2022-10-30T08:26:02;8.25;;;5.38;;
37781;SDS011;23621;50.878;4.584;2022-10-30T08:28:31;8.27;;;5.55;;
37781;SDS011;23621;50.878;4.584;2022-10-30T08:30:58;9.27;;;5.53;;
37781;SDS011;23621;50.878;4.584;2022-10-30T08:33:26;8.98;;;5.38;;
37781;SDS011;23621;50.878;4.584;2022-10-30T08:35:54;11.50;;;5.65;;
37781;SDS011;23621;50.878;4.584;2022-10-30T08:38:23;8.52;;;5.25;;
37781;SDS011;23621;50.878;4.584;2022-10-30T08:40:50;8.65;;;6.13;;
37781;SDS011;23621;50.878;4.584;2022-10-30T08:43:18;8.40;;;5.75;;
37781;SDS011;23621;50.878;4.584;2022-10-30T08:45:46;9.48;;;5.60;;
37781;SDS011;23621;50.878;4.584;2022-10-30T08:48:16;7.55;;;5.93;;
37781;SDS011;23621;50.878;4.584;2022-10-30T08:50:42;9.30;;;5.18;;
37781;SDS011;23621;50.878;4.584;2022-10-30T08:53:10;6.97;;;5.35;;
37781;SDS011;23621;50.878;4.584;2022-10-30T08:55:39;6.45;;;4.78;;
37781;SDS011;23621;50.878;4.584;2022-10-30T08:58:06;7.70;;;5.30;;
37781;SDS011;23621;50.878;4.584;2022-10-30T09:00:33;7.72;;;5.53;;
37781;SDS011;23621;50.878;4.584;2022-10-30T09:03:00;9.02;;;6.18;;
37781;SDS011;23621;50.878;4.584;2022-10-30T09:05:28;8.73;;;6.00;;
37781;SDS011;23621;50.878;4.584;2022-10-30T09:07:56;8.32;;;6.85;;
37781;SDS011;23621;50.878;4.584;2022-10-30T09:10:28;11.43;;;7.25;;
37781;SDS011;23621;50.878;4.584;2022-10-30T09:12:56;10.38;;;8.18;;
37781;SDS011;23621;50.878;4.584;2022-10-30T09:15:24;10.73;;;7.75;;
37781;SDS011;23621;50.878;4.584;2022-10-30T09:17:58;10.60;;;7.65;;
37781;SDS011;23621;50.878;4.584;2022-10-30T09:20:28;9.50;;;7.00;;
37781;SDS011;23621;50.878;4.584;2022-10-30T09:22:56;13.02;;;6.47;;
37781;SDS011;23621;50.878;4.584;2022-10-30T09:25:23;6.82;;;6.10;;
37781;SDS011;23621;50.878;4.584;2022-10-30T09:27:50;11.48;;;6.18;;
37781;SDS011;23621;50.878;4.584;2022-10-30T09:30:17;9.82;;;6.80;;
37781;SDS011;23621;50.878;4.584;2022-10-30T09:32:44;11.10;;;6.50;;
37781;SDS011;23621;50.878;4.584;2022-10-30T09:35:13;8.80;;;6.13;;
37781;SDS011;23621;50.878;4.584;2022-10-30T09:37:40;12.27;;;5.75;;
37781;SDS011;23621;50.878;4.584;2022-10-30T09:40:07;7.82;;;5.43;;
37781;SDS011;23621;50.878;4.584;2022-10-30T09:42:39;11.40;;;6.13;;
37781;SDS011;23621;50.878;4.584;2022-10-30T09:50:59;6.97;;;5.47;;
37781;SDS011;23621;50.878;4.584;2022-10-30T09:59:28;6.93;;;5.22;;
37781;SDS011;23621;50.878;4.584;2022-10-30T10:02:00;9.63;;;5.63;;
37781;SDS011;23621;50.878;4.584;2022-10-30T10:04:43;8.75;;;5.20;;
37781;SDS011;23621;50.878;4.584;2022-10-30T10:07:31;7.88;;;5.50;;
37781;SDS011;23621;50.878;4.584;2022-10-30T10:10:05;6.53;;;4.93;;
37781;SDS011;23621;50.878;4.584;2022-10-30T10:12:39;6.55;;;5.10;;
37781;SDS011;23621;50.878;4.584;2022-10-30T10:15:15;8.30;;;5.65;;
37781;SDS011;23621;50.878;4.584;2022-10-30T10:17:57;7.43;;;4.75;;
37781;SDS011;23621;50.878;4.584;2022-10-30T10:20:29;7.72;;;4.45;;
37781;SDS011;23621;50.878;4.584;2022-10-30T10:23:05;8.00;;;5.05;;
37781;SDS011;23621;50.878;4.584;2022-10-30T10:25:43;6.35;;;4.53;;
37781;SDS011;23621;50.878;4.584;2022-10-30T10:28:28;8.15;;;4.60;;
37781;SDS011;23621;50.878;4.584;2022-10-30T10:31:06;8.68;;;4.82;;
37781;SDS011;23621;50.878;4.584;2022-10-30T10:39:32;6.93;;;4.35;;
37781;SDS011;23621;50.878;4.584;2022-10-30T10:50:57;5.75;;;4.40;;
37781;SDS011;23621;50.878;4.584;2022-10-30T10:53:41;10.20;;;5.43;;
37781;SDS011;23621;50.878;4.584;2022-10-30T10:56:45;8.63;;;4.30;;
37781;SDS011;23621;50.878;4.584;2022-10-30T10:59:18;7.00;;;4.65;;
37781;SDS011;23621;50.878;4.584;2022-10-30T11:04:37;5.60;;;4.22;;
37781;SDS011;23621;50.878;4.584;2022-10-30T11:09:54;6.43;;;4.47;;
37781;SDS011;23621;50.878;4.584;2022-10-30T11:12:33;5.90;;;4.30;;
37781;SDS011;23621;50.878;4.584;2022-10-30T11:15:17;6.88;;;4.50;;
37781;SDS011;23621;50.878;4.584;2022-10-30T11:18:01;8.82;;;4.70;;
37781;SDS011;23621;50.878;4.584;2022-10-30T11:20:35;8.07;;;4.65;;
37781;SDS011;23621;50.878;4.584;2022-10-30T11:25:56;8.70;;;4.80;;
37781;SDS011;23621;50.878;4.584;2022-10-30T11:28:43;8.35;;;5.03;;
37781;SDS011;23621;50.878;4.584;2022-10-30T11:33:53;8.63;;;4.72;;
37781;SDS011;23621;50.878;4.584;2022-10-30T11:36:22;6.75;;;4.07;;
37781;SDS011;23621;50.878;4.584;2022-10-30T11:38:50;9.38;;;4.70;;
37781;SDS011;23621;50.878;4.584;2022-10-30T11:41:17;9.98;;;5.40;;
37781;SDS011;23621;50.878;4.584;2022-10-30T11:43:45;7.50;;;4.35;;
37781;SDS011;23621;50.878;4.584;2022-10-30T11:46:18;7.97;;;4.38;;
37781;SDS011;23621;50.878;4.584;2022-10-30T11:48:48;8.65;;;4.95;;
37781;SDS011;23621;50.878;4.584;2022-10-30T11:51:34;10.23;;;4.45;;
37781;SDS011;23621;50.878;4.584;2022-10-30T11:54:04;8.52;;;4.53;;
37781;SDS011;23621;50.878;4.584;2022-10-30T11:56:33;7.95;;;4.28;;
37781;SDS011;23621;50.878;4.584;2022-10-30T11:59:01;7.75;;;4.20;;
37781;SDS011;23621;50.878;4.584;2022-10-30T12:01:31;10.10;;;4.75;;
37781;SDS011;23621;50.878;4.584;2022-10-30T12:07:07;7.32;;;4.55;;
37781;SDS011;23621;50.878;4.584;2022-10-30T12:09:42;8.48;;;4.47;;
37781;SDS011;23621;50.878;4.584;2022-10-30T12:14:49;8.63;;;4.63;;
37781;SDS011;23621;50.878;4.584;2022-10-30T12:17:16;9.75;;;4.47;;
37781;SDS011;23621;50.878;4.584;2022-10-30T12:19:46;9.60;;;4.82;;
37781;SDS011;23621;50.878;4.584;2022-10-30T12:22:31;10.35;;;4.72;;
37781;SDS011;23621;50.878;4.584;2022-10-30T12:25:05;5.63;;;4.25;;
37781;SDS011;23621;50.878;4.584;2022-10-30T12:27:40;8.32;;;4.57;;
37781;SDS011;23621;50.878;4.584;2022-10-30T12:32:46;8.55;;;4.82;;
37781;SDS011;23621;50.878;4.584;2022-10-30T12:35:30;7.10;;;4.47;;
37781;SDS011;23621;50.878;4.584;2022-10-30T12:38:04;6.78;;;4.35;;
37781;SDS011;23621;50.878;4.584;2022-10-30T12:40:40;11.20;;;4.40;;
37781;SDS011;23621;50.878;4.584;2022-10-30T12:43:33;9.25;;;4.78;;
37781;SDS011;23621;50.878;4.584;2022-10-30T12:46:24;7.68;;;4.90;;
37781;SDS011;23621;50.878;4.584;2022-10-30T12:49:06;8.48;;;5.10;;
37781;SDS011;23621;50.878;4.584;2022-10-30T12:56:53;8.27;;;5.15;;
37781;SDS011;23621;50.878;4.584;2022-10-30T12:59:33;7.55;;;4.70;;
37781;SDS011;23621;50.878;4.584;2022-10-30T13:04:36;6.25;;;4.20;;
37781;SDS011;23621;50.878;4.584;2022-10-30T13:07:12;8.75;;;5.45;;
37781;SDS011;23621;50.878;4.584;2022-10-30T13:12:31;6.70;;;3.70;;
37781;SDS011;23621;50.878;4.584;2022-10-30T13:15:19;6.10;;;3.90;;
37781;SDS011;23621;50.878;4.584;2022-10-30T13:17:54;8.02;;;3.63;;
37781;SDS011;23621;50.878;4.584;2022-10-30T13:20:24;9.48;;;4.60;;
37781;SDS011;23621;50.878;4.584;2022-10-30T13:28:35;8.27;;;3.80;;
37781;SDS011;23621;50.878;4.584;2022-10-30T13:37:11;6.53;;;3.85;;
37781;SDS011;23621;50.878;4.584;2022-10-30T13:40:02;6.03;;;3.08;;
37781;SDS011;23621;50.878;4.584;2022-10-30T13:42:43;9.88;;;3.92;;
37781;SDS011;23621;50.878;4.584;2022-10-30T13:47:53;7.13;;;3.88;;
37781;SDS011;23621;50.878;4.584;2022-10-30T13:53:25;8.63;;;3.30;;
37781;SDS011;23621;50.878;4.584;2022-10-30T13:55:55;5.55;;;3.63;;
37781;SDS011;23621;50.878;4.584;2022-10-30T14:01:39;6.72;;;3.45;;
37781;SDS011;23621;50.878;4.584;2022-10-30T14:06:49;7.28;;;3.33;;
37781;SDS011;23621;50.878;4.584;2022-10-30T14:09:38;4.93;;;3.88;;
37781;SDS011;23621;50.878;4.584;2022-10-30T14:20:38;4.35;;;3.30;;
37781;SDS011;23621;50.878;4.584;2022-10-30T14:28:31;4.45;;;3.13;;
37781;SDS011;23621;50.878;4.584;2022-10-30T14:31:04;6.55;;;3.42;;
37781;SDS011;23621;50.878;4.584;2022-10-30T14:38:51;5.55;;;2.88;;
37781;SDS011;23621;50.878;4.584;2022-10-30T14:44:16;6.57;;;3.63;;
37781;SDS011;23621;50.878;4.584;2022-10-30T15:02:56;8.85;;;4.13;;
37781;SDS011;23621;50.878;4.584;2022-10-30T15:07:59;9.25;;;5.18;;
37781;SDS011;23621;50.878;4.584;2022-10-30T15:10:38;9.80;;;5.22;;
37781;SDS011;23621;50.878;4.584;2022-10-30T15:13:29;6.43;;;4.68;;
37781;SDS011;23621;50.878;4.584;2022-10-30T15:16:00;7.10;;;4.72;;
37781;SDS011;23621;50.878;4.584;2022-10-30T15:18:30;7.95;;;4.68;;
37781;SDS011;23621;50.878;4.584;2022-10-30T15:21:05;7.93;;;4.90;;
37781;SDS011;23621;50.878;4.584;2022-10-30T15:23:34;12.57;;;5.22;;
37781;SDS011;23621;50.878;4.584;2022-10-30T15:26:05;7.43;;;5.32;;
37781;SDS011;23621;50.878;4.584;2022-10-30T15:28:35;7.18;;;5.03;;
37781;SDS011;23621;50.878;4.584;2022-10-30T15:31:04;8.43;;;5.63;;
37781;SDS011;23621;50.878;4.584;2022-10-30T15:33:34;9.98;;;5.68;;
37781;SDS011;23621;50.878;4.584;2022-10-30T15:36:03;10.20;;;5.43;;
37781;SDS011;23621;50.878;4.584;2022-10-30T15:38:30;10.05;;;5.57;;
37781;SDS011;23621;50.878;4.584;2022-10-30T15:40:58;11.55;;;5.82;;
37781;SDS011;23621;50.878;4.584;2022-10-30T15:43:38;7.30;;;5.53;;
37781;SDS011;23621;50.878;4.584;2022-10-30T15:46:10;13.07;;;6.07;;
37781;SDS011;23621;50.878;4.584;2022-10-30T15:48:40;14.55;;;6.60;;
37781;SDS011;23621;50.878;4.584;2022-10-30T15:51:20;10.07;;;6.90;;
37781;SDS011;23621;50.878;4.584;2022-10-30T15:53:53;9.93;;;6.90;;
37781;SDS011;23621;50.878;4.584;2022-10-30T15:58:56;10.43;;;6.28;;
37781;SDS011;23621;50.878;4.584;2022-10-30T16:01:40;10.75;;;5.93;;
37781;SDS011;23621;50.878;4.584;2022-10-30T16:04:13;11.98;;;7.13;;
37781;SDS011;23621;50.878;4.584;2022-10-30T16:06:45;8.57;;;6.20;;
37781;SDS011;23621;50.878;4.584;2022-10-30T16:09:21;8.70;;;7.05;;
37781;SDS011;23621;50.878;4.584;2022-10-30T16:11:49;9.75;;;6.82;;
37781;SDS011;23621;50.878;4.584;2022-10-30T16:14:21;9.07;;;7.18;;
37781;SDS011;23621;50.878;4.584;2022-10-30T16:16:50;9.73;;;6.95;;
37781;SDS011;23621;50.878;4.584;2022-10-30T16:19:22;12.50;;;6.82;;
37781;SDS011;23621;50.878;4.584;2022-10-30T16:21:56;14.48;;;6.95;;
37781;SDS011;23621;50.878;4.584;2022-10-30T16:24:31;13.57;;;7.15;;
37781;SDS011;23621;50.878;4.584;2022-10-30T16:27:00;10.50;;;6.93;;
37781;SDS011;23621;50.878;4.584;2022-10-30T16:29:39;12.35;;;6.93;;
37781;SDS011;23621;50.878;4.584;2022-10-30T16:32:10;9.38;;;6.60;;
37781;SDS011;23621;50.878;4.584;2022-10-30T16:34:39;12.55;;;7.07;;
37781;SDS011;23621;50.878;4.584;2022-10-30T16:37:31;9.18;;;6.55;;
37781;SDS011;23621;50.878;4.584;2022-10-30T16:40:04;21.80;;;16.67;;
37781;SDS011;23621;50.878;4.584;2022-10-30T16:42:37;29.35;;;22.00;;
37781;SDS011;23621;50.878;4.584;2022-10-30T16:47:38;12.27;;;7.97;;
37781;SDS011;23621;50.878;4.584;2022-10-30T16:50:10;10.70;;;7.55;;
37781;SDS011;23621;50.878;4.584;2022-10-30T16:52:41;9.63;;;6.70;;
37781;SDS011;23621;50.878;4.584;2022-10-30T16:55:21;10.55;;;7.00;;
37781;SDS011;23621;50.878;4.584;2022-10-30T16:57:52;8.10;;;6.20;;
37781;SDS011;23621;50.878;4.584;2022-10-30T17:00:21;11.13;;;6.60;;
37781;SDS011;23621;50.878;4.584;2022-10-30T17:02:52;10.77;;;6.90;;
37781;SDS011;23621;50.878;4.584;2022-10-30T17:05:22;11.95;;;7.00;;
37781;SDS011;23621;50.878;4.584;2022-10-30T17:10:29;11.00;;;6.82;;
37781;SDS011;23621;50.878;4.584;2022-10-30T17:18:54;10.02;;;6.88;;
37781;SDS011;23621;50.878;4.584;2022-10-30T17:21:39;10.02;;;6.88;;
37781;SDS011;23621;50.878;4.584;2022-10-30T17:27:03;9.70;;;7.10;;
37781;SDS011;23621;50.878;4.584;2022-10-30T17:32:10;10.40;;;7.43;;
37781;SDS011;23621;50.878;4.584;2022-10-30T17:34:41;11.65;;;7.53;;
37781;SDS011;23621;50.878;4.584;2022-10-30T17:37:08;11.20;;;7.97;;